This is the latest recevied weather packets stored in our database for station/object IU1DOF-3. If no packets are shown the sender has not sent any weather packets the latest 10 day(s).
| Time | Temp. | Humidity | Pressure | Rain* | Wind** | Luminosity | Snow |
|---|---|---|---|---|---|---|---|
| 1777814620 | 18.33° C | 63% | 1016.5 hPa | 0 mm | - | - | - |
| 1777813999 | 18.33° C | 60% | 1016.5 hPa | 0 mm | - | - | - |
| 1777813373 | 17.78° C | 62% | 1016.6 hPa | 0 mm | - | - | - |
| 1777812760 | 17.78° C | 61% | 1016.7 hPa | 0 mm | - | - | - |
| 1777812143 | 17.78° C | 61% | 1016.9 hPa | 0 mm | - | - | - |
| 1777811518 | 17.78° C | 63% | 1016.9 hPa | 0 mm | - | - | - |
| 1777810900 | 17.22° C | 63% | 1017 hPa | 0 mm | - | - | - |
| 1777810286 | 16.67° C | 63% | 1017.1 hPa | 0 mm | - | - | - |
| 1777809662 | 16.67° C | 65% | 1016.9 hPa | 0 mm | - | - | - |
| 1777809039 | 17.22° C | 64% | 1017.2 hPa | 0 mm | - | - | - |
| 1777808415 | 17.22° C | 63% | 1017.2 hPa | 0 mm | - | - | - |
| 1777807790 | 16.67° C | 65% | 1017.1 hPa | 0 mm | - | - | - |
| 1777807180 | 17.22° C | 62% | 1017.2 hPa | 0 mm | - | - | - |
| 1777806558 | 17.22° C | 63% | 1016.8 hPa | 0 mm | - | - | - |
| 1777805935 | 17.78° C | 63% | 1016.9 hPa | 0 mm | - | - | - |
| 1777805321 | 17.22° C | 63% | 1016.9 hPa | 0 mm | - | - | - |
| 1777804703 | 17.22° C | 59% | 1017.3 hPa | 0 mm | - | - | - |
| 1777804078 | 17.78° C | 57% | 1017.1 hPa | 0 mm | - | - | - |
| 1777803470 | 18.89° C | 57% | 1017.1 hPa | 0 mm | - | - | - |
| 1777802860 | 18.33° C | 58% | 1017.4 hPa | 0 mm | - | - | - |
| 1777802240 | 18.33° C | 59% | 1017.5 hPa | 0 mm | - | - | - |
| 1777801614 | 17.78° C | 58% | 1017.3 hPa | 0 mm | - | - | - |
| 1777801002 | 17.78° C | 57% | 1017.4 hPa | 0 mm | - | - | - |
| 1777800383 | 16.67° C | 61% | 1017.1 hPa | 0 mm | - | - | - |
| 1777799759 | 17.22° C | 58% | 1017.5 hPa | 0 mm | - | - | - |
* Rain latest hour (hover to see other rain measurements)
** Current wind speed in m/s (hover to see current wind gust speed)